Flight Track Log - Related Links

Times and Time Zones

All times are in EDT time to prevent confusion due to time zone crossing. See the N508QS flight status page for this flight to view local times or setup timezone preferences in your user account.

Time Position Orientation Groundspeed Altitude Reporting Facility
EDT Latitude Longitude Course Direction KTS MPH feet Rate Location/Type
Sat 07:20:59 PM 39.1167 -94.6000 218° Southwest 157 181 1,900  Level Kansas TRACON
Sat 07:21:23 PM 39.1000 -94.6167 218° Southwest 174 200 3,600 3,702 Climbing Kansas TRACON
Sat 07:21:46 PM 39.0914 -94.6364 241° Southwest 195 224 4,800 4,193 Climbing Kansas Center
Sat 07:22:46 PM 39.1197 -94.7081 297° West 276 318 9,400 3,719 Climbing Kansas Center
Sat 07:23:47 PM 39.2036 -94.7200 354° North 325 374 12,300 3,387 Climbing Kansas Center
Sat 07:24:50 PM 39.3153 -94.7167 North 366 421 16,400 3,484 Climbing Kansas Center
Sat 07:25:51 PM 39.3900 -94.6114 47° Northeast 420 483 19,500 3,372 Climbing Kansas Center
Sat 07:26:51 PM 39.4869 -94.4872 45° Northeast 437 503 23,200 3,273 Climbing Kansas Center
Sat 07:27:52 PM 39.5744 -94.3775 44° Northeast 456 525 26,100 2,902 Climbing Kansas Center
Sat 07:28:53 PM 39.6803 -94.2431 44° Northeast 477 549 29,100 2,656 Climbing Kansas Center
Sat 07:29:54 PM 39.7742 -94.1250 44° Northeast 493 567 31,500 2,419 Climbing Kansas Center
Sat 07:30:57 PM 39.8536 -94.0036 50° Northeast 494 568 34,100 2,516 Climbing Kansas Center
Sat 07:31:58 PM 39.8964 -93.8333 72° East 498 573 36,700 1,438 Climbing Kansas Center
Sat 07:32:58 PM 39.9392 -93.6267 75° East 498 573 37,000 149 Climbing Kansas Center
Sat 07:33:59 PM 39.9758 -93.4531 75° East 501 577 37,000  Level Kansas Center
Sat 07:35:02 PM 40.0097 -93.2917 75° East 474 545 37,000  Level Kansas Center
Sat 07:36:03 PM 40.0433 -93.1275 75° East 471 542 37,000  Level Kansas Center
Sat 07:37:03 PM 40.0828 -92.9386 75° East 475 547 37,000  Level Kansas Center
Sat 07:38:03 PM 40.1147 -92.7783 75° East 476 548 37,000  Level Kansas Center
Sat 07:39:05 PM 40.1469 -92.6183 75° East 476 548 37,000  Level Kansas Center
Sat 07:40:06 PM 40.1861 -92.4311 75° East 478 550 37,000  Level Kansas Center
Sat 07:41:10 PM 40.2169 -92.2756 75° East 479 551 37,000 -48 Level Kansas Center
Sat 07:42:10 PM 40.2503 -92.1092 75° East 480 552 36,900 -541 Descending Kansas Center
Sat 07:43:12 PM 40.2833 -91.9389 76° East 484 557 35,900 -1,082 Descending Kansas Center
Sat 07:44:12 PM 40.3244 -91.7264 76° East 500 575 34,700 -1,140 Descending Kansas Center
Sat 07:45:13 PM 40.3581 -91.5522 76° East 500 575 33,600 -1,091 Descending Kansas Center
Sat 07:45:51 PM 40.3786 -91.4461 76° East 502 578 32,900 -1,200 Descending Chicago Center
Sat 07:46:53 PM 40.4125 -91.2611 76° East 506 582 31,600 -1,186 Descending Chicago Center
Sat 07:47:17 PM 40.4258 -91.1911 76° East 504 580 31,200 -590 Descending Kansas Center
Sat 07:47:54 PM 40.4469 -91.0889 75° East 492 566 31,000 -121 Descending Chicago Center
Sat 07:48:56 PM 40.4778 -90.9150 77° East 490 564 31,000 -49 Level Chicago Center
Sat 07:49:57 PM 40.5108 -90.7378 76° East 497 572 30,900 -732 Descending Chicago Center
Sat 07:50:59 PM 40.5425 -90.5614 77° East 497 572 29,500 -1,561 Descending Chicago Center
Sat 07:52:00 PM 40.5828 -90.3425 76° East 511 588 27,700 -1,512 Descending Chicago Center
Sat 07:53:02 PM 40.6106 -90.1836 77° East 499 574 26,400 -1,366 Descending Chicago Center
Sat 07:54:03 PM 40.6417 -90.0119 77° East 487 560 24,900 -1,171 Descending Chicago Center
Sat 07:55:05 PM 40.6753 -89.8067 78° East 482 555 24,000 -634 Descending Chicago Center
Sat 07:56:06 PM 40.7406 -89.6553 60° Northeast 480 552 23,600 -1,512 Descending Chicago Center
Sat 07:57:08 PM 40.8044 -89.5036 61° Northeast 459 528 20,900 -2,390 Descending Chicago Center
Sat 07:58:09 PM 40.8675 -89.3586 60° Northeast 456 525 18,700 -1,967 Descending Chicago Center
Sat 07:59:10 PM 40.9267 -89.2200 61° Northeast 432 497 16,900 -1,561 Descending Chicago Center
Sat 08:00:12 PM 40.9967 -89.0914 54° Northeast 429 494 15,500 -1,463 Descending Chicago Center
Sat 08:01:13 PM 41.0731 -88.9872 46° Northeast 416 479 13,900 -1,756 Descending Chicago Center
Sat 08:02:15 PM 41.1594 -88.8647 47° Northeast 381 438 11,900 -1,659 Descending Chicago Center
Sat 08:03:16 PM 41.2222 -88.7742 47° Northeast 337 388 10,500 -1,220 Descending Chicago Center
Sat 08:04:18 PM 41.2789 -88.6919 47° Northeast 307 353 9,400 -1,122 Descending Chicago Center
Sat 08:05:19 PM 41.3244 -88.5969 57° Northeast 305 351 8,200 -1,171 Descending Chicago Center
Sat 08:06:21 PM 41.3675 -88.5067 58° Northeast 295 339 7,000 -1,073 Descending Chicago Center
Sat 08:07:22 PM 41.4097 -88.4208 57° Northeast 283 326 6,000 -780 Descending Chicago Center
Sat 08:08:24 PM 41.4511 -88.3344 57° Northeast 278 320 5,400 -683 Descending Chicago Center
Sat 08:09:25 PM 41.4931 -88.2489 57° Northeast 276 318 4,600 -683 Descending Chicago Center
Sat 08:10:27 PM 41.5347 -88.1642 57° Northeast 272 313 4,000 -293 Descending Chicago Center
Sat 08:11:28 PM 41.5836 -88.0619 57° Northeast 271 312 4,000  Level Chicago Center
Sat 08:12:30 PM 41.6217 -87.9842 57° Northeast 261 300 4,000  Level Chicago Center
Sat 08:13:31 PM 41.6511 -87.9250 56° Northeast 217 250 4,000 -390 Level Chicago Center
Sat 08:14:33 PM 41.6878 -87.8722 47° Northeast 201 231 3,200 -878 Descending Chicago Center
Sat 08:15:34 PM 41.7253 -87.8283 41° Northeast 190 219 2,200 -829 Descending Chicago Center
Sat 08:16:36 PM 41.7547 -87.7950 40° Northeast 163 188 1,500 -537 Descending Chicago Center
Sat 08:17:37 PM 41.7797 -87.7639 43° Northeast 138 159 1,100 -393 Descending Chicago Center
Sat 08:19:00 PM 41.7833 -87.7500 North  Level FlightAware

Login

Don't have an account? Register now (free) for customized features, flight alerts, and more!